createdAt,value
2023-04-02T00:01:47.484Z,98365.80
2023-04-02T00:04:22.592Z,98363.88
2023-04-02T00:06:54.688Z,98363.59
2023-04-02T00:09:31.339Z,98362.02
2023-04-02T00:12:00.496Z,98360.97
2023-04-02T00:14:36.805Z,98361.67
2023-04-02T00:17:05.980Z,98362.77
2023-04-02T00:19:53.007Z,98363.05
2023-04-02T00:22:25.762Z,98363.71
2023-04-02T00:24:54.706Z,98364.10
2023-04-02T00:27:23.953Z,98366.91
2023-04-02T00:29:54.139Z,98367.55
2023-04-02T00:32:31.147Z,98367.00
2023-04-02T00:34:59.805Z,98366.05
2023-04-02T00:37:29.088Z,98367.47
2023-04-02T00:40:07.477Z,98368.98
2023-04-02T00:42:36.107Z,98368.59
2023-04-02T00:45:05.300Z,98367.46
2023-04-02T00:47:35.931Z,98373.95
2023-04-02T00:50:14.690Z,98373.09
2023-04-02T00:52:44.659Z,98374.18
2023-04-02T00:55:36.961Z,98374.55
2023-04-02T00:58:32.421Z,98376.77
2023-04-02T01:01:19.329Z,98375.45
2023-04-02T01:04:00.076Z,98377.14
2023-04-02T01:06:31.260Z,98382.75
2023-04-02T01:08:59.939Z,98377.41
2023-04-02T01:11:35.893Z,98376.55
2023-04-02T01:14:58.265Z,98376.13
2023-04-02T01:18:03.645Z,98375.74
2023-04-02T01:20:43.693Z,98378.73
2023-04-02T01:23:52.856Z,98374.30
2023-04-02T01:26:40.952Z,98374.15
2023-04-02T01:29:13.094Z,98376.86
2023-04-02T01:31:41.942Z,98381.21
2023-04-02T01:34:12.773Z,98378.50
2023-04-02T01:37:08.803Z,98380.89
2023-04-02T01:40:31.549Z,98381.54
2023-04-02T01:43:28.368Z,98385.77
2023-04-02T01:46:00.449Z,98385.89
2023-04-02T01:48:30.294Z,98385.77
2023-04-02T01:50:59.992Z,98385.24
2023-04-02T01:53:30.149Z,98384.59
2023-04-02T01:56:00.964Z,98381.86
2023-04-02T01:58:32.619Z,98385.21
2023-04-02T02:01:20.357Z,98387.75
2023-04-02T02:03:52.081Z,98388.19
2023-04-02T02:06:20.957Z,98389.73
2023-04-02T02:09:01.453Z,98387.08
2023-04-02T02:11:30.782Z,98386.30
2023-04-02T02:14:00.983Z,98381.13
2023-04-02T02:16:41.930Z,98384.38
2023-04-02T02:19:33.733Z,98385.37
2023-04-02T02:22:08.291Z,98383.08
2023-04-02T02:24:37.233Z,98382.64
2023-04-02T02:27:23.025Z,98382.56
2023-04-02T02:30:06.593Z,98382.95
2023-04-02T02:32:35.306Z,98380.27
2023-04-02T02:35:12.848Z,98382.92
2023-04-02T02:37:44.144Z,98382.62
2023-04-02T02:40:17.541Z,98383.66
2023-04-02T02:42:52.891Z,98384.58
2023-04-02T02:45:24.516Z,98384.23
2023-04-02T02:47:52.919Z,98384.15
2023-04-02T02:50:24.090Z,98384.38
2023-04-02T02:52:55.198Z,98389.30
2023-04-02T02:55:27.819Z,98390.66
2023-04-02T02:58:13.682Z,98391.39
2023-04-02T03:00:48.089Z,98391.16
2023-04-02T03:03:24.309Z,98390.75
2023-04-02T03:06:06.427Z,98393.95
2023-04-02T03:08:40.382Z,98394.48
2023-04-02T03:11:12.246Z,98396.65
2023-04-02T03:13:42.219Z,98398.45
2023-04-02T03:16:19.835Z,98400.99
2023-04-02T03:19:09.696Z,98402.64
2023-04-02T03:21:57.368Z,98402.83
2023-04-02T03:24:47.809Z,98405.05
2023-04-02T03:27:26.048Z,98408.70
2023-04-02T03:30:30.986Z,98405.80
2023-04-02T03:33:06.601Z,98410.56
2023-04-02T03:35:43.364Z,98410.82
2023-04-02T03:38:36.524Z,98411.19
2023-04-02T03:41:14.864Z,98409.02
2023-04-02T03:43:46.625Z,98409.41
2023-04-02T03:46:40.531Z,98411.89
2023-04-02T03:49:32.822Z,98414.48
2023-04-02T03:52:15.440Z,98415.90
2023-04-02T03:54:53.682Z,98422.94
2023-04-02T03:57:34.263Z,98420.96
2023-04-02T04:00:07.238Z,98420.45
2023-04-02T04:02:55.186Z,98424.79
2023-04-02T04:05:31.128Z,98425.33
2023-04-02T04:08:08.365Z,98429.38
2023-04-02T04:10:37.445Z,98426.53
2023-04-02T04:13:09.609Z,98429.65
2023-04-02T04:15:39.766Z,98432.55
2023-04-02T04:18:24.329Z,98431.98
2023-04-02T04:20:57.713Z,98431.98
2023-04-02T04:23:33.242Z,98438.61
2023-04-02T04:26:12.195Z,98437.12
2023-04-02T04:28:47.664Z,98439.52
2023-04-02T04:31:26.004Z,98440.67
2023-04-02T04:34:03.202Z,98443.46
2023-04-02T04:36:36.232Z,98445.02
2023-04-02T04:39:14.745Z,98445.72
2023-04-02T04:41:47.256Z,98443.08
2023-04-02T04:44:29.282Z,98445.33
2023-04-02T04:47:11.179Z,98448.31
2023-04-02T04:49:57.432Z,98450.58
2023-04-02T04:52:44.810Z,98453.34
2023-04-02T04:55:23.327Z,98451.83
2023-04-02T04:57:55.933Z,98451.64
2023-04-02T05:00:35.939Z,98458.71
2023-04-02T05:03:38.492Z,98456.54
2023-04-02T05:06:27.356Z,98457.39
2023-04-02T05:08:56.247Z,98458.06
2023-04-02T05:11:34.662Z,98458.57
2023-04-02T05:14:17.409Z,98461.42
2023-04-02T05:17:00.868Z,98462.77
2023-04-02T05:19:32.149Z,98458.91
2023-04-02T05:22:14.187Z,98459.96
2023-04-02T05:24:50.118Z,98460.07
2023-04-02T05:27:24.725Z,98461.34
2023-04-02T05:30:01.152Z,98463.11
2023-04-02T05:32:32.370Z,98463.73
2023-04-02T05:35:02.363Z,98463.17
2023-04-02T05:37:33.150Z,98465.87
2023-04-02T05:40:12.365Z,98466.27
2023-04-02T05:42:44.175Z,98467.73
2023-04-02T05:45:22.897Z,98471.33
2023-04-02T05:47:53.875Z,98472.98
2023-04-02T05:50:27.447Z,98473.42
2023-04-02T05:53:04.296Z,98470.66
2023-04-02T05:56:13.386Z,98476.16
2023-04-02T05:58:58.285Z,98479.73
2023-04-02T06:01:39.378Z,98480.04
2023-04-02T06:04:51.594Z,98479.10
2023-04-02T06:07:27.391Z,98480.42
2023-04-02T06:10:23.528Z,98484.40
2023-04-02T06:12:58.289Z,98487.61
2023-04-02T06:15:28.322Z,98491.27
2023-04-02T06:18:20.897Z,98491.78
2023-04-02T06:20:50.636Z,98489.72
2023-04-02T06:23:32.485Z,98493.73
2023-04-02T06:26:34.049Z,98495.55
2023-04-02T06:29:13.972Z,98499.10
2023-04-02T06:31:56.390Z,98502.14
2023-04-02T06:34:26.179Z,98501.92
2023-04-02T06:37:03.590Z,98498.36
2023-04-02T06:39:33.664Z,98502.33
2023-04-02T06:42:12.549Z,98503.70
2023-04-02T06:44:59.794Z,98505.36
2023-04-02T06:47:49.407Z,98511.55
2023-04-02T06:50:43.449Z,98512.49
2023-04-02T06:53:34.879Z,98512.11
2023-04-02T06:56:22.737Z,98510.41
2023-04-02T06:58:52.270Z,98512.53
2023-04-02T07:01:24.496Z,98512.63
2023-04-02T07:03:53.840Z,98515.63
2023-04-02T07:06:31.258Z,98517.39
2023-04-02T07:09:01.860Z,98520.89
2023-04-02T07:11:30.633Z,98524.79
2023-04-02T07:14:01.603Z,98523.52
2023-04-02T07:16:32.275Z,98529.14
2023-04-02T07:19:01.553Z,98526.40
2023-04-02T07:21:35.609Z,98530.30
2023-04-02T07:24:04.001Z,98533.10
2023-04-02T07:26:33.097Z,98526.12
2023-04-02T07:29:01.576Z,98535.56
2023-04-02T07:31:30.100Z,98540.74
2023-04-02T07:34:00.337Z,98538.71
2023-04-02T07:36:29.314Z,98536.85
2023-04-02T07:38:57.869Z,98537.80
2023-04-02T07:41:26.827Z,98539.29
2023-04-02T07:43:56.076Z,98541.02
2023-04-02T07:46:26.162Z,98540.09
2023-04-02T07:48:54.835Z,98540.39
2023-04-02T07:51:25.173Z,98540.26
2023-04-02T07:53:57.450Z,98540.48
2023-04-02T07:56:26.841Z,98542.94
2023-04-02T07:58:55.139Z,98542.39
2023-04-02T08:01:25.938Z,98542.13
2023-04-02T08:03:57.514Z,98541.06
2023-04-02T08:06:26.455Z,98539.08
2023-04-02T08:08:56.391Z,98541.95
2023-04-02T08:11:24.824Z,98541.63
2023-04-02T08:13:54.670Z,98545.45
2023-04-02T08:16:25.445Z,98542.20
2023-04-02T08:18:54.452Z,98546.91
2023-04-02T08:21:23.078Z,98548.19
2023-04-02T08:23:51.568Z,98551.56
2023-04-02T08:26:20.031Z,98551.20
2023-04-02T08:28:48.511Z,98552.77
2023-04-02T08:31:17.584Z,98552.73
2023-04-02T08:33:46.419Z,98554.15
2023-04-02T08:36:18.082Z,98556.02
2023-04-02T08:38:46.832Z,98556.86
2023-04-02T08:41:23.556Z,98555.69
2023-04-02T08:44:04.499Z,98560.56
2023-04-02T08:47:17.380Z,98562.10
2023-04-02T08:49:51.621Z,98564.52
2023-04-02T08:52:25.654Z,98566.70
2023-04-02T08:54:56.635Z,98567.45
2023-04-02T08:57:27.819Z,98566.57
2023-04-02T09:00:20.555Z,98569.45
2023-04-02T09:03:18.444Z,98573.00
2023-04-02T09:05:47.029Z,98570.58
2023-04-02T09:08:20.299Z,98572.73
2023-04-02T09:10:58.973Z,98574.70
2023-04-02T09:13:32.075Z,98575.76
2023-04-02T09:16:11.574Z,98582.14
2023-04-02T09:18:39.983Z,98583.38
2023-04-02T09:21:28.407Z,98582.46
2023-04-02T09:23:58.487Z,98582.80
2023-04-02T09:26:30.138Z,98583.61
2023-04-02T09:29:13.502Z,98584.86
2023-04-02T09:31:44.108Z,98587.35
2023-04-02T09:34:33.669Z,98585.89
2023-04-02T09:37:15.481Z,98585.94
2023-04-02T09:39:44.483Z,98587.59
2023-04-02T09:42:34.291Z,98589.09
2023-04-02T09:45:24.324Z,98589.73
2023-04-02T09:47:54.428Z,98593.14
2023-04-02T09:50:32.460Z,98596.54
2023-04-02T09:53:35.922Z,98599.53
2023-04-02T09:56:08.555Z,98599.05
2023-04-02T09:58:37.708Z,98601.55
2023-04-02T10:01:50.033Z,98602.05
2023-04-02T10:04:46.114Z,98603.70
2023-04-02T10:07:38.240Z,98601.90
2023-04-02T10:10:19.221Z,98609.17
2023-04-02T10:12:51.645Z,98605.47
2023-04-02T10:15:32.437Z,98613.63
2023-04-02T10:18:13.438Z,98610.13
2023-04-02T10:20:50.439Z,98613.48
2023-04-02T10:23:21.072Z,98614.73
2023-04-02T10:26:15.896Z,98617.16
2023-04-02T10:28:48.689Z,98619.45
2023-04-02T10:31:22.724Z,98615.63
2023-04-02T10:33:52.980Z,98618.30
2023-04-02T10:37:49.876Z,98623.11
2023-04-02T10:40:28.369Z,98618.91
2023-04-02T10:42:56.891Z,98619.87
2023-04-02T10:45:31.695Z,98624.98
2023-04-02T10:48:04.858Z,98626.64
2023-04-02T10:50:47.309Z,98625.70
2023-04-02T10:53:21.570Z,98625.06
2023-04-02T10:55:58.373Z,98626.47
2023-04-02T10:58:30.672Z,98628.44
2023-04-02T11:01:02.845Z,98627.61
2023-04-02T11:03:37.166Z,98631.06
2023-04-02T11:06:26.484Z,98633.09
2023-04-02T11:08:58.781Z,98633.81
2023-04-02T11:11:39.422Z,98634.16
2023-04-02T11:14:14.202Z,98616.00
2023-04-02T11:16:44.753Z,98633.78
2023-04-02T11:19:19.478Z,98637.55
2023-04-02T11:21:58.075Z,98641.08
2023-04-02T11:24:34.343Z,98639.20
2023-04-02T11:27:10.081Z,98636.44
2023-04-02T11:29:42.683Z,98636.81
2023-04-02T11:32:30.019Z,98638.85
2023-04-02T11:35:06.668Z,98640.44
2023-04-02T11:37:39.822Z,98636.94
2023-04-02T11:40:11.879Z,98636.67
2023-04-02T11:42:41.629Z,98641.16
2023-04-02T11:45:29.049Z,98638.39
2023-04-02T11:48:00.266Z,98642.66
2023-04-02T11:50:34.873Z,98647.48
2023-04-02T11:53:12.381Z,98645.79
2023-04-02T11:55:41.582Z,98649.34
2023-04-02T11:58:21.298Z,98650.51
2023-04-02T12:01:08.449Z,98648.80
2023-04-02T12:04:10.671Z,98653.42
2023-04-02T12:07:00.500Z,98653.91
2023-04-02T12:09:29.427Z,98656.84
2023-04-02T12:11:59.875Z,98658.54
2023-04-02T12:14:47.891Z,98660.77
2023-04-02T12:17:22.534Z,98661.13
2023-04-02T12:19:52.780Z,98661.16
2023-04-02T12:22:23.597Z,98663.26
2023-04-02T12:25:07.302Z,98664.93
2023-04-02T12:27:38.324Z,98665.73
2023-04-02T12:30:12.613Z,98664.09
2023-04-02T12:32:41.232Z,98665.83
2023-04-02T12:35:25.279Z,98667.45
2023-04-02T12:37:53.937Z,98665.27
2023-04-02T12:40:22.681Z,98664.66
2023-04-02T12:42:51.746Z,98667.20
2023-04-02T12:45:24.094Z,98668.40
2023-04-02T12:47:53.612Z,98666.02
2023-04-02T12:50:22.444Z,98667.31
2023-04-02T12:52:53.347Z,98666.45
2023-04-02T12:55:23.839Z,98666.50
2023-04-02T12:57:58.905Z,98664.88
2023-04-02T13:00:31.360Z,98664.17
2023-04-02T13:03:06.643Z,98665.58
2023-04-02T13:05:44.459Z,98663.18
2023-04-02T13:08:30.852Z,98667.85
2023-04-02T13:11:03.263Z,98662.45
2023-04-02T13:13:36.718Z,98664.40
2023-04-02T13:16:17.646Z,98665.40
2023-04-02T13:18:47.344Z,98667.23
2023-04-02T13:21:19.770Z,98665.72
2023-04-02T13:23:48.596Z,98665.08
2023-04-02T13:26:24.854Z,98663.92
2023-04-02T13:28:59.104Z,98665.49
2023-04-02T13:31:28.851Z,98665.56
2023-04-02T13:33:57.784Z,98666.30
2023-04-02T13:36:26.773Z,98666.55
2023-04-02T13:38:55.898Z,98664.13
2023-04-02T13:41:26.578Z,98668.80
2023-04-02T13:43:55.679Z,98666.83
2023-04-02T13:46:26.618Z,98667.48
2023-04-02T13:48:58.098Z,98668.57
2023-04-02T13:51:38.541Z,98666.94
2023-04-02T13:54:11.961Z,98667.11
2023-04-02T13:56:41.510Z,98664.80
2023-04-02T13:59:10.152Z,98667.10
2023-04-02T14:01:40.912Z,98664.80
2023-04-02T14:04:10.808Z,98669.60
2023-04-02T14:06:49.680Z,98672.69
2023-04-02T14:09:39.715Z,98672.06
2023-04-02T14:12:20.810Z,98670.92
2023-04-02T14:15:02.678Z,98673.02
2023-04-02T14:17:43.697Z,98670.77
2023-04-02T14:20:18.185Z,98671.77
2023-04-02T14:22:49.888Z,98671.40
2023-04-02T14:25:53.628Z,98670.30
2023-04-02T14:28:23.954Z,98672.29
2023-04-02T14:30:55.546Z,98672.59
2023-04-02T14:33:39.693Z,98679.36
2023-04-02T14:36:18.234Z,98677.70
2023-04-02T14:38:59.332Z,98681.38
2023-04-02T14:41:43.192Z,98678.02
2023-04-02T14:44:11.481Z,98681.50
2023-04-02T14:46:41.718Z,98685.30
2023-04-02T14:49:17.766Z,98684.60
2023-04-02T14:51:53.087Z,98689.17
2023-04-02T14:54:38.039Z,98690.63
2023-04-02T14:57:23.304Z,98690.20
2023-04-02T15:00:21.192Z,98692.95
2023-04-02T15:02:54.174Z,98688.59
2023-04-02T15:05:24.826Z,98690.52
2023-04-02T15:08:06.842Z,98689.30
2023-04-02T15:10:45.703Z,98688.67
2023-04-02T15:13:20.089Z,98687.81
2023-04-02T15:16:10.208Z,98686.58
2023-04-02T15:18:39.910Z,98690.19
2023-04-02T15:21:20.595Z,98692.32
2023-04-02T15:24:10.463Z,98694.27
2023-04-02T15:27:18.257Z,98696.48
2023-04-02T15:30:14.965Z,98699.20
2023-04-02T15:32:49.204Z,98700.34
2023-04-02T15:35:24.447Z,98695.41
2023-04-02T15:38:11.341Z,98701.95
2023-04-02T15:40:59.532Z,98703.84
2023-04-02T15:43:54.744Z,98705.75
2023-04-02T15:46:36.819Z,98703.44
2023-04-02T15:49:05.761Z,98703.67
2023-04-02T15:51:58.416Z,98708.83
2023-04-02T15:54:40.516Z,98710.46
2023-04-02T15:57:21.620Z,98707.73
2023-04-02T15:59:57.489Z,98705.02
2023-04-02T16:02:31.881Z,98705.80
2023-04-02T16:05:25.285Z,98712.10
2023-04-02T16:08:31.708Z,98710.26
2023-04-02T16:11:00.202Z,98713.48
2023-04-02T16:13:35.962Z,98713.65
2023-04-02T16:16:16.106Z,98713.98
2023-04-02T16:19:22.888Z,98717.69
2023-04-02T16:22:12.322Z,98715.80
2023-04-02T16:24:40.732Z,98714.97
2023-04-02T16:27:32.279Z,98716.44
2023-04-02T16:30:28.957Z,98719.99
2023-04-02T16:32:58.427Z,98717.52
2023-04-02T16:38:14.878Z,98719.42
2023-04-02T16:41:09.036Z,98719.29
2023-04-02T16:43:43.819Z,98714.78
2023-04-02T16:46:35.833Z,98715.73
2023-04-02T16:49:35.129Z,98716.17
2023-04-02T16:52:28.274Z,98718.55
2023-04-02T16:55:23.732Z,98719.38
2023-04-02T16:58:20.540Z,98721.99
2023-04-02T17:00:56.421Z,98726.52
2023-04-02T17:03:46.151Z,98725.48
2023-04-02T17:06:26.578Z,98726.02
2023-04-02T17:09:01.479Z,98727.95
2023-04-02T17:11:42.297Z,98730.03
2023-04-02T17:14:29.790Z,98737.21
2023-04-02T17:17:01.670Z,98735.65
2023-04-02T17:19:31.376Z,98736.71
2023-04-02T17:22:01.994Z,98737.20
2023-04-02T17:24:41.860Z,98737.08
2023-04-02T17:27:32.806Z,98743.05
2023-04-02T17:30:36.455Z,98745.33
2023-04-02T17:33:12.261Z,98749.40
2023-04-02T17:35:48.948Z,98748.54
2023-04-02T17:38:43.633Z,98755.20
2023-04-02T17:41:23.766Z,98751.91
2023-04-02T17:44:22.060Z,98755.66
2023-04-02T17:46:56.162Z,98758.92
2023-04-02T17:49:40.476Z,98758.73
2023-04-02T17:52:32.194Z,98758.46
2023-04-02T17:55:22.823Z,98760.95
2023-04-02T17:58:09.810Z,98760.38
2023-04-02T18:00:56.367Z,98760.16
2023-04-02T18:03:44.257Z,98763.35
2023-04-02T18:06:33.151Z,98762.20
2023-04-02T18:09:01.510Z,98763.45
2023-04-02T18:11:39.130Z,98767.35
2023-04-02T18:14:26.273Z,98768.95
2023-04-02T18:17:16.646Z,98769.71
2023-04-02T18:19:57.698Z,98770.58
2023-04-02T18:22:42.492Z,98776.23
2023-04-02T18:25:25.643Z,98776.54
2023-04-02T18:28:05.111Z,98773.88
2023-04-02T18:30:56.110Z,98774.55
2023-04-02T18:33:31.923Z,98777.42
2023-04-02T18:36:19.810Z,98770.91
2023-04-02T18:38:54.747Z,98774.85
2023-04-02T18:41:54.974Z,98775.30
2023-04-02T18:44:31.137Z,98778.05
2023-04-02T18:47:18.796Z,98774.31
2023-04-02T18:49:48.764Z,98775.36
2023-04-02T18:52:17.949Z,98777.27
2023-04-02T18:55:01.583Z,98776.41
2023-04-02T18:57:32.041Z,98777.98
2023-04-02T19:00:05.994Z,98779.83
2023-04-02T19:02:47.718Z,98778.73
2023-04-02T19:05:31.395Z,98780.55
2023-04-02T19:08:14.583Z,98778.48
2023-04-02T19:10:50.110Z,98779.37
2023-04-02T19:13:23.402Z,98781.92
2023-04-02T19:16:24.892Z,98780.89
2023-04-02T19:19:09.190Z,98778.96
2023-04-02T19:22:01.685Z,98778.99
2023-04-02T19:24:48.714Z,98778.52
2023-04-02T19:27:27.405Z,98781.52
2023-04-02T19:30:17.877Z,98780.20
2023-04-02T19:32:54.017Z,98786.09
2023-04-02T19:35:32.407Z,98780.13
2023-04-02T19:38:14.971Z,98786.63
2023-04-02T19:41:08.618Z,98779.73
2023-04-02T19:43:36.947Z,98779.67
2023-04-02T19:46:05.589Z,98783.63
2023-04-02T19:49:03.153Z,98783.58
2023-04-02T19:51:31.641Z,98785.31
2023-04-02T19:54:01.140Z,98787.12
2023-04-02T19:56:30.190Z,98784.85
2023-04-02T19:59:02.322Z,98784.27
2023-04-02T20:01:33.726Z,98788.30
2023-04-02T20:04:03.905Z,98790.48
2023-04-02T20:06:33.283Z,98791.83
2023-04-02T20:09:02.486Z,98789.17
2023-04-02T20:11:31.212Z,98789.83
2023-04-02T20:14:06.863Z,98790.45
2023-04-02T20:16:37.003Z,98787.61
2023-04-02T20:19:05.670Z,98790.89
2023-04-02T20:21:38.553Z,98789.30
2023-04-02T20:24:07.818Z,98790.55
2023-04-02T20:26:36.550Z,98784.90
2023-04-02T20:29:06.615Z,98789.03
2023-04-02T20:31:35.590Z,98789.61
2023-04-02T20:34:05.806Z,98790.50
2023-04-02T20:36:37.802Z,98788.45
2023-04-02T20:39:09.266Z,98789.97
2023-04-02T20:41:37.492Z,98786.55
2023-04-02T20:44:06.348Z,98789.28
2023-04-02T20:46:37.096Z,98788.69
2023-04-02T20:49:05.359Z,98789.34
2023-04-02T20:51:34.579Z,98789.84
2023-04-02T20:54:03.481Z,98789.13
2023-04-02T20:56:37.855Z,98790.58
2023-04-02T20:59:06.262Z,98787.70
2023-04-02T21:01:34.600Z,98786.95
2023-04-02T21:04:03.572Z,98785.45
2023-04-02T21:06:34.410Z,98788.81
2023-04-02T21:09:05.766Z,98788.06
2023-04-02T21:11:37.415Z,98792.02
2023-04-02T21:14:06.154Z,98787.70
2023-04-02T21:16:34.893Z,98791.30
2023-04-02T21:19:05.434Z,98790.38
2023-04-02T21:21:34.514Z,98790.63
2023-04-02T21:24:05.961Z,98792.27
2023-04-02T21:26:36.688Z,98792.56
2023-04-02T21:29:05.609Z,98790.64
2023-04-02T21:31:35.914Z,98791.80
2023-04-02T21:34:04.481Z,98789.84
2023-04-02T21:36:35.297Z,98786.70
2023-04-02T21:39:09.639Z,98786.87
2023-04-02T21:41:39.694Z,98785.63
2023-04-02T21:44:08.833Z,98787.08
2023-04-02T21:46:39.053Z,98786.73
2023-04-02T21:49:08.534Z,98784.54
2023-04-02T21:51:37.386Z,98781.33
2023-04-02T21:54:09.557Z,98778.12
2023-04-02T21:56:42.181Z,98776.21
2023-04-02T21:59:11.746Z,98781.34
2023-04-02T22:01:41.961Z,98779.40
2023-04-02T22:04:14.724Z,98781.00
2023-04-02T22:06:43.666Z,98783.61
2023-04-02T22:09:17.250Z,98782.08
2023-04-02T22:11:47.476Z,98781.17
2023-04-02T22:14:15.940Z,98780.61
2023-04-02T22:16:44.740Z,98781.41
2023-04-02T22:19:15.789Z,98781.05
2023-04-02T22:21:44.202Z,98782.91
2023-04-02T22:24:19.098Z,98785.73
2023-04-02T22:26:48.012Z,98784.17
2023-04-02T22:29:16.801Z,98785.38
2023-04-02T22:31:45.789Z,98784.63
2023-04-02T22:34:14.865Z,98783.35
2023-04-02T22:36:43.210Z,98778.33
2023-04-02T22:39:12.625Z,98782.86
2023-04-02T22:41:41.201Z,98779.86
2023-04-02T22:44:13.575Z,98781.66
2023-04-02T22:46:41.997Z,98779.88
2023-04-02T22:49:11.838Z,98774.79
2023-04-02T22:53:46.078Z,98783.08
2023-04-02T22:56:16.332Z,98779.47
2023-04-02T22:58:44.713Z,98782.02
2023-04-02T23:01:14.235Z,98777.89
2023-04-02T23:03:43.162Z,98776.33
2023-04-02T23:06:16.656Z,98775.72
2023-04-02T23:08:45.686Z,98777.15
2023-04-02T23:11:15.169Z,98773.59
2023-04-02T23:13:44.625Z,98769.73
2023-04-02T23:16:13.469Z,98769.02
2023-04-02T23:18:48.106Z,98765.11
2023-04-02T23:21:17.754Z,98762.86
2023-04-02T23:23:46.511Z,98764.00
2023-04-02T23:26:16.272Z,98763.08
2023-04-02T23:28:44.717Z,98759.52
2023-04-02T23:31:18.700Z,98762.61
2023-04-02T23:33:47.010Z,98759.45
2023-04-02T23:36:25.644Z,98757.77
2023-04-02T23:38:55.786Z,98761.16
2023-04-02T23:41:24.975Z,98759.52
2023-04-02T23:43:53.318Z,98756.52
2023-04-02T23:46:22.016Z,98755.05
2023-04-02T23:48:52.121Z,98755.45
2023-04-02T23:51:21.549Z,98751.59
2023-04-02T23:53:50.858Z,98749.53
2023-04-02T23:56:21.928Z,98751.36
2023-04-02T23:58:51.062Z,98749.03
